Ashiya Air Base, Japan

8:22 PM JST on July 27, 2016 (GMT +0900)
Karlsbader Straße | | Change Station

Elev 9 ft 33.88 °N, 130.73 °E | Updated 10 seconds ago

Mostly Cloudy
Mostly Cloudy
85.6 °F
Feels Like 93 °F
N
0.6
Wind Variable Wind from SW
Gusts 1.2 mph

Today
High -- | Low -- °F
--% Chance of Precip.
Yesterday
High -- | Low -- °F
Precip. -- in
Pressure 29.74 in
Visibility 6.2 miles
Clouds Few 2500 ft
Mostly Cloudy 3500 ft
Mostly Cloudy 5000 ft
Heat Index 93 °F
Dew Point 74 °F
Humidity 67%
Rainfall in
Snow Depth Not available.
5:25 AM 7:21 PM
Last Quarter, 44% visible
METAR RJFR 271100Z 02002KT 9999 FEW025 BKN035 BKN050 28/23 Q1007
Pressure 29.74 in
Visibility 6.2 miles
Clouds Few 2500 ft
Mostly Cloudy 3500 ft
Mostly Cloudy 5000 ft
Heat Index 93 °F
Dew Point 74 °F
Humidity 67%
Rainfall in
Snow Depth Not available.
5:25 AM 7:21 PM
Last Quarter, 44% visible
METAR RJFR 271100Z 02002KT 9999 FEW025 BKN035 BKN050 28/23 Q1007

10-Day Weather Forecast

No radar image for this location.
×

Almanac

Astronomy

Jul. 27, 2016 Rise Set
Actual Time
Civil Twilight
Nautical Twilight
Astronomical Twilight
Moon
Length of Visible Light
Length of Day
Tomorrow will be .
, % of the Moon is Illuminated

Today's Extremes

Country Highs Country Lows

Community

WunderPhotos

Upload Photos

1,927,826 photos uploaded!

WunderBlog® & News

Nearby

Air Quality

  Air Quality AQ Index Pollutant
Not available.

Snow Depth

Station Depth Elevation

Earthquake Activity

City Distance Mag. Time & Date
Minimum magnitude displayed is 2.5.

Coastal Water Temperatures

Place Temperature

Stations

Nearby Weather Stations

Station Location Temp. Windchill Dew Point Humidity Wind Precip. Elev Updated Type